sensor_id;sensor_type;location;lat;lon;timestamp;P1;durP1;ratioP1;P2;durP2;ratioP2
2055;SDS011;1033;52.560;13.374;2022-07-23T00:01:31;8.17;;;7.37;;
2055;SDS011;1033;52.560;13.374;2022-07-23T00:04:02;10.00;;;7.13;;
2055;SDS011;1033;52.560;13.374;2022-07-23T00:06:31;8.00;;;6.87;;
2055;SDS011;1033;52.560;13.374;2022-07-23T00:09:00;7.93;;;6.33;;
2055;SDS011;1033;52.560;13.374;2022-07-23T00:11:30;9.40;;;6.40;;
2055;SDS011;1033;52.560;13.374;2022-07-23T00:13:59;8.80;;;6.83;;
2055;SDS011;1033;52.560;13.374;2022-07-23T00:16:28;8.20;;;7.13;;
2055;SDS011;1033;52.560;13.374;2022-07-23T00:18:57;7.23;;;5.90;;
2055;SDS011;1033;52.560;13.374;2022-07-23T00:21:30;12.50;;;7.70;;
2055;SDS011;1033;52.560;13.374;2022-07-23T00:23:59;9.73;;;6.00;;
2055;SDS011;1033;52.560;13.374;2022-07-23T00:26:27;9.40;;;6.40;;
2055;SDS011;1033;52.560;13.374;2022-07-23T00:28:56;6.90;;;5.97;;
2055;SDS011;1033;52.560;13.374;2022-07-23T00:31:26;7.50;;;5.73;;
2055;SDS011;1033;52.560;13.374;2022-07-23T00:33:55;7.17;;;6.30;;
2055;SDS011;1033;52.560;13.374;2022-07-23T00:36:28;8.60;;;6.10;;
2055;SDS011;1033;52.560;13.374;2022-07-23T00:38:59;6.90;;;6.30;;
2055;SDS011;1033;52.560;13.374;2022-07-23T00:41:28;7.90;;;6.40;;
2055;SDS011;1033;52.560;13.374;2022-07-23T00:46:47;6.63;;;5.97;;
2055;SDS011;1033;52.560;13.374;2022-07-23T00:49:19;8.83;;;7.50;;
2055;SDS011;1033;52.560;13.374;2022-07-23T00:51:50;7.83;;;6.00;;
2055;SDS011;1033;52.560;13.374;2022-07-23T00:54:21;7.23;;;5.83;;
2055;SDS011;1033;52.560;13.374;2022-07-23T00:56:53;7.30;;;5.80;;
2055;SDS011;1033;52.560;13.374;2022-07-23T00:59:22;7.60;;;6.30;;
2055;SDS011;1033;52.560;13.374;2022-07-23T01:01:51;8.40;;;7.07;;
2055;SDS011;1033;52.560;13.374;2022-07-23T01:04:20;8.50;;;6.77;;
2055;SDS011;1033;52.560;13.374;2022-07-23T01:06:50;8.20;;;5.73;;
2055;SDS011;1033;52.560;13.374;2022-07-23T01:09:20;7.40;;;6.00;;
2055;SDS011;1033;52.560;13.374;2022-07-23T01:11:49;8.60;;;5.67;;
2055;SDS011;1033;52.560;13.374;2022-07-23T01:14:21;7.53;;;6.50;;
2055;SDS011;1033;52.560;13.374;2022-07-23T01:16:50;8.33;;;6.90;;
2055;SDS011;1033;52.560;13.374;2022-07-23T01:19:20;9.70;;;7.70;;
2055;SDS011;1033;52.560;13.374;2022-07-23T01:21:51;13.73;;;6.87;;
2055;SDS011;1033;52.560;13.374;2022-07-23T01:24:25;9.50;;;6.23;;
2055;SDS011;1033;52.560;13.374;2022-07-23T01:27:01;8.83;;;7.77;;
2055;SDS011;1033;52.560;13.374;2022-07-23T01:29:35;7.13;;;6.43;;
2055;SDS011;1033;52.560;13.374;2022-07-23T01:32:09;9.23;;;6.83;;
2055;SDS011;1033;52.560;13.374;2022-07-23T01:34:38;7.87;;;6.90;;
2055;SDS011;1033;52.560;13.374;2022-07-23T01:37:07;9.23;;;7.10;;
2055;SDS011;1033;52.560;13.374;2022-07-23T01:39:38;10.10;;;7.27;;
2055;SDS011;1033;52.560;13.374;2022-07-23T01:42:07;7.83;;;7.03;;
2055;SDS011;1033;52.560;13.374;2022-07-23T01:44:36;9.53;;;7.37;;
2055;SDS011;1033;52.560;13.374;2022-07-23T01:47:08;10.13;;;7.67;;
2055;SDS011;1033;52.560;13.374;2022-07-23T01:49:37;10.70;;;8.10;;
2055;SDS011;1033;52.560;13.374;2022-07-23T01:52:26;7.93;;;5.60;;
2055;SDS011;1033;52.560;13.374;2022-07-23T01:54:56;11.07;;;6.60;;
2055;SDS011;1033;52.560;13.374;2022-07-23T01:57:25;9.23;;;7.53;;
2055;SDS011;1033;52.560;13.374;2022-07-23T01:59:54;6.93;;;6.20;;
2055;SDS011;1033;52.560;13.374;2022-07-23T02:02:23;7.40;;;6.60;;
2055;SDS011;1033;52.560;13.374;2022-07-23T02:04:53;11.03;;;8.07;;
2055;SDS011;1033;52.560;13.374;2022-07-23T02:07:25;8.03;;;6.40;;
2055;SDS011;1033;52.560;13.374;2022-07-23T02:10:00;12.43;;;7.00;;
2055;SDS011;1033;52.560;13.374;2022-07-23T02:12:29;7.47;;;5.90;;
2055;SDS011;1033;52.560;13.374;2022-07-23T02:14:58;10.20;;;7.50;;
2055;SDS011;1033;52.560;13.374;2022-07-23T02:17:27;7.57;;;6.57;;
2055;SDS011;1033;52.560;13.374;2022-07-23T02:19:56;10.53;;;6.43;;
2055;SDS011;1033;52.560;13.374;2022-07-23T02:22:25;7.87;;;6.97;;
2055;SDS011;1033;52.560;13.374;2022-07-23T02:24:53;9.50;;;7.17;;
2055;SDS011;1033;52.560;13.374;2022-07-23T02:27:24;10.57;;;7.17;;
2055;SDS011;1033;52.560;13.374;2022-07-23T02:29:55;9.30;;;6.83;;
2055;SDS011;1033;52.560;13.374;2022-07-23T02:32:24;8.27;;;6.73;;
2055;SDS011;1033;52.560;13.374;2022-07-23T02:34:53;9.73;;;6.20;;
2055;SDS011;1033;52.560;13.374;2022-07-23T02:37:21;8.03;;;6.50;;
2055;SDS011;1033;52.560;13.374;2022-07-23T02:39:50;9.77;;;6.77;;
2055;SDS011;1033;52.560;13.374;2022-07-23T02:42:19;9.87;;;5.60;;
2055;SDS011;1033;52.560;13.374;2022-07-23T02:44:51;10.50;;;6.00;;
2055;SDS011;1033;52.560;13.374;2022-07-23T02:47:20;7.73;;;6.10;;
2055;SDS011;1033;52.560;13.374;2022-07-23T02:49:49;11.10;;;6.63;;
2055;SDS011;1033;52.560;13.374;2022-07-23T02:52:18;8.40;;;6.47;;
2055;SDS011;1033;52.560;13.374;2022-07-23T02:54:47;6.47;;;5.87;;
2055;SDS011;1033;52.560;13.374;2022-07-23T02:57:16;7.20;;;5.90;;
2055;SDS011;1033;52.560;13.374;2022-07-23T02:59:45;12.43;;;5.20;;
2055;SDS011;1033;52.560;13.374;2022-07-23T03:02:15;10.50;;;5.93;;
2055;SDS011;1033;52.560;13.374;2022-07-23T03:04:44;14.80;;;5.93;;
2055;SDS011;1033;52.560;13.374;2022-07-23T03:07:13;10.60;;;5.90;;
2055;SDS011;1033;52.560;13.374;2022-07-23T03:09:41;6.87;;;6.17;;
2055;SDS011;1033;52.560;13.374;2022-07-23T03:12:10;5.60;;;4.67;;
2055;SDS011;1033;52.560;13.374;2022-07-23T03:14:40;7.40;;;6.00;;
2055;SDS011;1033;52.560;13.374;2022-07-23T03:17:09;9.47;;;5.87;;
2055;SDS011;1033;52.560;13.374;2022-07-23T03:19:39;6.27;;;4.27;;
2055;SDS011;1033;52.560;13.374;2022-07-23T03:22:08;7.80;;;6.80;;
2055;SDS011;1033;52.560;13.374;2022-07-23T03:24:37;8.73;;;5.47;;
2055;SDS011;1033;52.560;13.374;2022-07-23T03:27:31;9.63;;;5.80;;
2055;SDS011;1033;52.560;13.374;2022-07-23T03:30:00;6.73;;;5.80;;
2055;SDS011;1033;52.560;13.374;2022-07-23T03:32:29;7.30;;;5.37;;
2055;SDS011;1033;52.560;13.374;2022-07-23T03:35:00;5.17;;;4.67;;
2055;SDS011;1033;52.560;13.374;2022-07-23T03:37:29;7.93;;;5.33;;
2055;SDS011;1033;52.560;13.374;2022-07-23T03:39:59;7.50;;;5.10;;
2055;SDS011;1033;52.560;13.374;2022-07-23T03:42:28;7.33;;;5.07;;
2055;SDS011;1033;52.560;13.374;2022-07-23T03:44:57;7.03;;;4.33;;
2055;SDS011;1033;52.560;13.374;2022-07-23T03:47:26;6.67;;;4.10;;
2055;SDS011;1033;52.560;13.374;2022-07-23T03:49:54;7.17;;;4.53;;
2055;SDS011;1033;52.560;13.374;2022-07-23T03:52:25;4.73;;;3.53;;
2055;SDS011;1033;52.560;13.374;2022-07-23T03:54:53;3.70;;;3.13;;
2055;SDS011;1033;52.560;13.374;2022-07-23T03:57:23;5.23;;;3.77;;
2055;SDS011;1033;52.560;13.374;2022-07-23T03:59:52;4.70;;;4.00;;
2055;SDS011;1033;52.560;13.374;2022-07-23T04:02:21;5.70;;;3.13;;
2055;SDS011;1033;52.560;13.374;2022-07-23T04:04:50;8.47;;;3.60;;
2055;SDS011;1033;52.560;13.374;2022-07-23T04:07:19;10.27;;;3.10;;
2055;SDS011;1033;52.560;13.374;2022-07-23T04:09:49;6.57;;;4.40;;
2055;SDS011;1033;52.560;13.374;2022-07-23T04:12:18;6.73;;;3.70;;
2055;SDS011;1033;52.560;13.374;2022-07-23T04:14:47;4.20;;;3.50;;
2055;SDS011;1033;52.560;13.374;2022-07-23T04:17:15;3.63;;;2.80;;
2055;SDS011;1033;52.560;13.374;2022-07-23T04:19:45;4.20;;;2.80;;
2055;SDS011;1033;52.560;13.374;2022-07-23T04:22:17;3.73;;;2.07;;
2055;SDS011;1033;52.560;13.374;2022-07-23T04:24:45;3.20;;;2.63;;
2055;SDS011;1033;52.560;13.374;2022-07-23T04:27:17;4.83;;;2.60;;
2055;SDS011;1033;52.560;13.374;2022-07-23T04:29:47;6.63;;;2.67;;
2055;SDS011;1033;52.560;13.374;2022-07-23T04:32:15;3.97;;;2.73;;
2055;SDS011;1033;52.560;13.374;2022-07-23T04:34:45;4.20;;;2.50;;
2055;SDS011;1033;52.560;13.374;2022-07-23T04:37:14;5.83;;;3.00;;
2055;SDS011;1033;52.560;13.374;2022-07-23T04:39:43;4.60;;;2.83;;
2055;SDS011;1033;52.560;13.374;2022-07-23T04:42:12;7.27;;;2.77;;
2055;SDS011;1033;52.560;13.374;2022-07-23T04:44:42;5.53;;;3.70;;
2055;SDS011;1033;52.560;13.374;2022-07-23T04:47:12;5.27;;;3.30;;
2055;SDS011;1033;52.560;13.374;2022-07-23T04:49:43;5.60;;;2.80;;
2055;SDS011;1033;52.560;13.374;2022-07-23T04:52:11;4.17;;;3.13;;
2055;SDS011;1033;52.560;13.374;2022-07-23T04:54:41;5.60;;;2.97;;
2055;SDS011;1033;52.560;13.374;2022-07-23T04:57:11;4.90;;;3.83;;
2055;SDS011;1033;52.560;13.374;2022-07-23T04:59:41;3.60;;;3.03;;
2055;SDS011;1033;52.560;13.374;2022-07-23T05:02:11;8.00;;;3.33;;
2055;SDS011;1033;52.560;13.374;2022-07-23T05:04:40;3.27;;;2.97;;
2055;SDS011;1033;52.560;13.374;2022-07-23T05:07:10;5.93;;;3.20;;
2055;SDS011;1033;52.560;13.374;2022-07-23T05:09:39;6.20;;;3.33;;
2055;SDS011;1033;52.560;13.374;2022-07-23T05:12:08;6.20;;;3.50;;
2055;SDS011;1033;52.560;13.374;2022-07-23T05:14:41;8.00;;;3.03;;
2055;SDS011;1033;52.560;13.374;2022-07-23T05:17:10;5.87;;;3.50;;
2055;SDS011;1033;52.560;13.374;2022-07-23T05:19:39;3.43;;;3.10;;
2055;SDS011;1033;52.560;13.374;2022-07-23T05:22:08;4.37;;;3.77;;
2055;SDS011;1033;52.560;13.374;2022-07-23T05:24:37;5.90;;;3.67;;
2055;SDS011;1033;52.560;13.374;2022-07-23T05:27:07;7.67;;;3.67;;
2055;SDS011;1033;52.560;13.374;2022-07-23T05:29:44;9.50;;;3.73;;
2055;SDS011;1033;52.560;13.374;2022-07-23T05:32:14;5.57;;;3.23;;
2055;SDS011;1033;52.560;13.374;2022-07-23T05:34:50;6.73;;;3.63;;
2055;SDS011;1033;52.560;13.374;2022-07-23T05:37:18;5.30;;;4.03;;
2055;SDS011;1033;52.560;13.374;2022-07-23T05:39:47;3.60;;;3.30;;
2055;SDS011;1033;52.560;13.374;2022-07-23T05:42:17;3.87;;;3.47;;
2055;SDS011;1033;52.560;13.374;2022-07-23T05:44:47;6.20;;;3.50;;
2055;SDS011;1033;52.560;13.374;2022-07-23T05:47:16;5.07;;;2.63;;
2055;SDS011;1033;52.560;13.374;2022-07-23T05:49:45;6.67;;;5.73;;
2055;SDS011;1033;52.560;13.374;2022-07-23T05:52:37;6.33;;;3.97;;
2055;SDS011;1033;52.560;13.374;2022-07-23T05:55:26;5.20;;;4.70;;
2055;SDS011;1033;52.560;13.374;2022-07-23T05:57:58;5.00;;;3.17;;
2055;SDS011;1033;52.560;13.374;2022-07-23T06:00:28;4.80;;;3.37;;
2055;SDS011;1033;52.560;13.374;2022-07-23T06:02:58;7.10;;;4.30;;
2055;SDS011;1033;52.560;13.374;2022-07-23T06:05:29;4.27;;;3.60;;
2055;SDS011;1033;52.560;13.374;2022-07-23T06:07:57;4.27;;;3.50;;
2055;SDS011;1033;52.560;13.374;2022-07-23T06:10:26;4.93;;;3.53;;
2055;SDS011;1033;52.560;13.374;2022-07-23T06:12:55;4.60;;;3.87;;
2055;SDS011;1033;52.560;13.374;2022-07-23T06:15:30;6.53;;;3.10;;
2055;SDS011;1033;52.560;13.374;2022-07-23T06:17:59;6.80;;;4.33;;
2055;SDS011;1033;52.560;13.374;2022-07-23T06:20:28;6.30;;;4.53;;
2055;SDS011;1033;52.560;13.374;2022-07-23T06:22:57;4.63;;;4.23;;
2055;SDS011;1033;52.560;13.374;2022-07-23T06:25:27;6.90;;;4.20;;
2055;SDS011;1033;52.560;13.374;2022-07-23T06:27:56;5.27;;;3.97;;
2055;SDS011;1033;52.560;13.374;2022-07-23T06:30:26;5.93;;;4.57;;
2055;SDS011;1033;52.560;13.374;2022-07-23T06:32:56;4.10;;;3.60;;
2055;SDS011;1033;52.560;13.374;2022-07-23T06:35:25;5.27;;;4.17;;
2055;SDS011;1033;52.560;13.374;2022-07-23T06:37:54;4.47;;;4.07;;
2055;SDS011;1033;52.560;13.374;2022-07-23T06:40:22;4.80;;;4.30;;
2055;SDS011;1033;52.560;13.374;2022-07-23T06:42:51;5.63;;;3.70;;
2055;SDS011;1033;52.560;13.374;2022-07-23T06:45:22;4.47;;;3.93;;
2055;SDS011;1033;52.560;13.374;2022-07-23T06:47:51;8.37;;;4.50;;
2055;SDS011;1033;52.560;13.374;2022-07-23T06:50:21;4.93;;;3.80;;
2055;SDS011;1033;52.560;13.374;2022-07-23T06:52:50;9.63;;;4.87;;
2055;SDS011;1033;52.560;13.374;2022-07-23T06:55:19;6.03;;;4.17;;
2055;SDS011;1033;52.560;13.374;2022-07-23T06:57:48;15.60;;;5.10;;
2055;SDS011;1033;52.560;13.374;2022-07-23T07:00:17;6.43;;;4.20;;
2055;SDS011;1033;52.560;13.374;2022-07-23T07:02:46;7.70;;;3.70;;
2055;SDS011;1033;52.560;13.374;2022-07-23T07:05:15;5.23;;;4.70;;
2055;SDS011;1033;52.560;13.374;2022-07-23T07:07:45;8.90;;;4.80;;
2055;SDS011;1033;52.560;13.374;2022-07-23T07:10:14;5.33;;;4.70;;
2055;SDS011;1033;52.560;13.374;2022-07-23T07:12:44;3.50;;;3.20;;
2055;SDS011;1033;52.560;13.374;2022-07-23T07:15:13;5.90;;;5.30;;
2055;SDS011;1033;52.560;13.374;2022-07-23T07:17:41;8.50;;;3.63;;
2055;SDS011;1033;52.560;13.374;2022-07-23T07:20:10;4.40;;;4.00;;
2055;SDS011;1033;52.560;13.374;2022-07-23T07:22:39;4.53;;;4.03;;
2055;SDS011;1033;52.560;13.374;2022-07-23T07:25:10;6.47;;;4.47;;
2055;SDS011;1033;52.560;13.374;2022-07-23T07:27:38;7.20;;;4.03;;
2055;SDS011;1033;52.560;13.374;2022-07-23T07:30:08;4.97;;;4.00;;
2055;SDS011;1033;52.560;13.374;2022-07-23T07:32:38;12.80;;;4.90;;
2055;SDS011;1033;52.560;13.374;2022-07-23T07:35:24;4.70;;;4.20;;
2055;SDS011;1033;52.560;13.374;2022-07-23T07:37:53;7.00;;;4.23;;
2055;SDS011;1033;52.560;13.374;2022-07-23T07:40:23;8.40;;;4.00;;
2055;SDS011;1033;52.560;13.374;2022-07-23T07:42:59;12.13;;;5.10;;
2055;SDS011;1033;52.560;13.374;2022-07-23T07:45:29;6.93;;;4.50;;
2055;SDS011;1033;52.560;13.374;2022-07-23T07:47:58;3.77;;;3.27;;
2055;SDS011;1033;52.560;13.374;2022-07-23T07:50:27;5.93;;;4.00;;
2055;SDS011;1033;52.560;13.374;2022-07-23T07:52:56;5.50;;;3.80;;
2055;SDS011;1033;52.560;13.374;2022-07-23T07:55:26;5.40;;;4.30;;
2055;SDS011;1033;52.560;13.374;2022-07-23T07:57:55;4.83;;;4.33;;
2055;SDS011;1033;52.560;13.374;2022-07-23T08:00:27;6.63;;;3.30;;
2055;SDS011;1033;52.560;13.374;2022-07-23T08:02:58;5.30;;;3.70;;
2055;SDS011;1033;52.560;13.374;2022-07-23T08:05:29;3.53;;;3.20;;
2055;SDS011;1033;52.560;13.374;2022-07-23T08:07:59;8.53;;;3.50;;
2055;SDS011;1033;52.560;13.374;2022-07-23T08:10:29;5.23;;;3.47;;
2055;SDS011;1033;52.560;13.374;2022-07-23T08:12:59;4.57;;;2.60;;
2055;SDS011;1033;52.560;13.374;2022-07-23T08:15:28;4.93;;;2.80;;
2055;SDS011;1033;52.560;13.374;2022-07-23T08:17:58;5.03;;;2.57;;
2055;SDS011;1033;52.560;13.374;2022-07-23T08:20:28;6.47;;;2.97;;
2055;SDS011;1033;52.560;13.374;2022-07-23T08:22:57;4.90;;;2.50;;
2055;SDS011;1033;52.560;13.374;2022-07-23T08:25:29;4.10;;;2.83;;
2055;SDS011;1033;52.560;13.374;2022-07-23T08:28:02;4.57;;;3.20;;
2055;SDS011;1033;52.560;13.374;2022-07-23T08:30:34;4.40;;;2.63;;
2055;SDS011;1033;52.560;13.374;2022-07-23T08:33:06;5.03;;;3.83;;
2055;SDS011;1033;52.560;13.374;2022-07-23T08:35:59;4.73;;;2.63;;
2055;SDS011;1033;52.560;13.374;2022-07-23T08:38:31;5.60;;;3.20;;
2055;SDS011;1033;52.560;13.374;2022-07-23T08:41:03;7.50;;;3.60;;
2055;SDS011;1033;52.560;13.374;2022-07-23T08:43:35;5.23;;;4.73;;
2055;SDS011;1033;52.560;13.374;2022-07-23T08:46:04;5.33;;;3.60;;
2055;SDS011;1033;52.560;13.374;2022-07-23T08:48:34;6.80;;;3.47;;
2055;SDS011;1033;52.560;13.374;2022-07-23T08:51:06;10.30;;;3.67;;
2055;SDS011;1033;52.560;13.374;2022-07-23T08:53:37;4.10;;;2.90;;
2055;SDS011;1033;52.560;13.374;2022-07-23T08:56:09;8.43;;;3.53;;
2055;SDS011;1033;52.560;13.374;2022-07-23T08:58:37;6.50;;;3.00;;
2055;SDS011;1033;52.560;13.374;2022-07-23T09:01:06;2.90;;;2.50;;
2055;SDS011;1033;52.560;13.374;2022-07-23T09:03:36;3.77;;;3.20;;
2055;SDS011;1033;52.560;13.374;2022-07-23T09:06:06;3.80;;;3.33;;
2055;SDS011;1033;52.560;13.374;2022-07-23T09:08:36;7.90;;;3.30;;
2055;SDS011;1033;52.560;13.374;2022-07-23T09:11:07;4.90;;;3.50;;
2055;SDS011;1033;52.560;13.374;2022-07-23T09:13:38;6.33;;;2.87;;
2055;SDS011;1033;52.560;13.374;2022-07-23T09:16:11;3.47;;;3.17;;
2055;SDS011;1033;52.560;13.374;2022-07-23T09:18:43;4.10;;;3.37;;
2055;SDS011;1033;52.560;13.374;2022-07-23T09:21:16;7.33;;;3.13;;
2055;SDS011;1033;52.560;13.374;2022-07-23T09:23:56;4.60;;;4.03;;
2055;SDS011;1033;52.560;13.374;2022-07-23T09:26:30;7.07;;;3.93;;
2055;SDS011;1033;52.560;13.374;2022-07-23T09:29:06;4.83;;;4.23;;
2055;SDS011;1033;52.560;13.374;2022-07-23T09:31:46;8.33;;;4.63;;
2055;SDS011;1033;52.560;13.374;2022-07-23T09:34:19;5.57;;;3.30;;
2055;SDS011;1033;52.560;13.374;2022-07-23T09:36:50;5.93;;;3.97;;
2055;SDS011;1033;52.560;13.374;2022-07-23T09:39:25;6.53;;;3.93;;
2055;SDS011;1033;52.560;13.374;2022-07-23T09:41:57;5.90;;;3.80;;
2055;SDS011;1033;52.560;13.374;2022-07-23T09:44:41;4.40;;;4.00;;
2055;SDS011;1033;52.560;13.374;2022-07-23T09:47:11;3.87;;;3.47;;
2055;SDS011;1033;52.560;13.374;2022-07-23T09:49:40;9.37;;;4.70;;
2055;SDS011;1033;52.560;13.374;2022-07-23T09:52:26;4.63;;;4.23;;
2055;SDS011;1033;52.560;13.374;2022-07-23T09:55:02;5.30;;;3.73;;
2055;SDS011;1033;52.560;13.374;2022-07-23T09:57:34;4.17;;;3.77;;
2055;SDS011;1033;52.560;13.374;2022-07-23T10:00:06;4.90;;;3.50;;
2055;SDS011;1033;52.560;13.374;2022-07-23T10:02:37;5.20;;;4.13;;
2055;SDS011;1033;52.560;13.374;2022-07-23T10:05:26;5.80;;;4.07;;
2055;SDS011;1033;52.560;13.374;2022-07-23T10:08:16;6.83;;;3.40;;
2055;SDS011;1033;52.560;13.374;2022-07-23T10:11:06;3.63;;;3.20;;
2055;SDS011;1033;52.560;13.374;2022-07-23T10:14:05;4.63;;;3.70;;
2055;SDS011;1033;52.560;13.374;2022-07-23T10:16:50;3.73;;;3.40;;
2055;SDS011;1033;52.560;13.374;2022-07-23T10:19:19;6.73;;;2.80;;
2055;SDS011;1033;52.560;13.374;2022-07-23T10:21:50;4.80;;;3.63;;
2055;SDS011;1033;52.560;13.374;2022-07-23T10:24:30;4.53;;;3.33;;
2055;SDS011;1033;52.560;13.374;2022-07-23T10:27:37;4.03;;;3.30;;
2055;SDS011;1033;52.560;13.374;2022-07-23T10:30:22;4.87;;;3.30;;
2055;SDS011;1033;52.560;13.374;2022-07-23T10:33:12;4.37;;;3.97;;
2055;SDS011;1033;52.560;13.374;2022-07-23T10:35:59;4.20;;;3.43;;
2055;SDS011;1033;52.560;13.374;2022-07-23T10:38:37;4.80;;;3.73;;
2055;SDS011;1033;52.560;13.374;2022-07-23T10:41:30;5.50;;;4.17;;
2055;SDS011;1033;52.560;13.374;2022-07-23T10:44:07;7.60;;;5.53;;
2055;SDS011;1033;52.560;13.374;2022-07-23T10:46:55;5.40;;;3.03;;
2055;SDS011;1033;52.560;13.374;2022-07-23T10:49:32;4.70;;;3.57;;
2055;SDS011;1033;52.560;13.374;2022-07-23T10:52:18;3.77;;;3.47;;
2055;SDS011;1033;52.560;13.374;2022-07-23T10:54:53;4.73;;;3.90;;
2055;SDS011;1033;52.560;13.374;2022-07-23T10:57:25;4.10;;;3.53;;
2055;SDS011;1033;52.560;13.374;2022-07-23T11:00:14;4.73;;;4.03;;
2055;SDS011;1033;52.560;13.374;2022-07-23T11:02:51;5.20;;;3.40;;
2055;SDS011;1033;52.560;13.374;2022-07-23T11:05:21;6.27;;;3.83;;
2055;SDS011;1033;52.560;13.374;2022-07-23T11:08:12;4.07;;;3.67;;
2055;SDS011;1033;52.560;13.374;2022-07-23T11:10:45;4.73;;;3.70;;
2055;SDS011;1033;52.560;13.374;2022-07-23T11:13:27;5.60;;;4.50;;
2055;SDS011;1033;52.560;13.374;2022-07-23T11:16:11;4.57;;;4.17;;
2055;SDS011;1033;52.560;13.374;2022-07-23T11:21:49;6.60;;;3.60;;
2055;SDS011;1033;52.560;13.374;2022-07-23T11:24:23;3.83;;;3.43;;
2055;SDS011;1033;52.560;13.374;2022-07-23T11:26:53;12.90;;;3.80;;
2055;SDS011;1033;52.560;13.374;2022-07-23T11:29:37;4.87;;;4.37;;
2055;SDS011;1033;52.560;13.374;2022-07-23T11:32:28;6.40;;;3.50;;
2055;SDS011;1033;52.560;13.374;2022-07-23T11:35:20;5.43;;;3.70;;
2055;SDS011;1033;52.560;13.374;2022-07-23T11:37:52;5.90;;;4.70;;
2055;SDS011;1033;52.560;13.374;2022-07-23T11:40:25;9.43;;;4.07;;
2055;SDS011;1033;52.560;13.374;2022-07-23T11:42:55;6.67;;;4.10;;
2055;SDS011;1033;52.560;13.374;2022-07-23T11:45:30;6.33;;;4.43;;
2055;SDS011;1033;52.560;13.374;2022-07-23T11:48:02;4.63;;;3.60;;
2055;SDS011;1033;52.560;13.374;2022-07-23T11:50:35;4.20;;;3.50;;
2055;SDS011;1033;52.560;13.374;2022-07-23T11:53:05;4.53;;;4.03;;
2055;SDS011;1033;52.560;13.374;2022-07-23T11:55:33;4.70;;;3.93;;
2055;SDS011;1033;52.560;13.374;2022-07-23T11:58:02;5.10;;;3.53;;
2055;SDS011;1033;52.560;13.374;2022-07-23T12:00:31;6.53;;;4.00;;
2055;SDS011;1033;52.560;13.374;2022-07-23T12:03:06;6.13;;;3.60;;
2055;SDS011;1033;52.560;13.374;2022-07-23T12:05:37;6.37;;;3.87;;
2055;SDS011;1033;52.560;13.374;2022-07-23T12:08:07;4.40;;;3.60;;
2055;SDS011;1033;52.560;13.374;2022-07-23T12:10:38;3.77;;;3.47;;
2055;SDS011;1033;52.560;13.374;2022-07-23T12:13:10;6.37;;;3.77;;
2055;SDS011;1033;52.560;13.374;2022-07-23T12:15:41;3.70;;;3.40;;
2055;SDS011;1033;52.560;13.374;2022-07-23T12:18:13;5.40;;;3.90;;
2055;SDS011;1033;52.560;13.374;2022-07-23T12:20:48;4.40;;;3.73;;
2055;SDS011;1033;52.560;13.374;2022-07-23T12:23:20;4.77;;;4.33;;
2055;SDS011;1033;52.560;13.374;2022-07-23T12:25:52;5.77;;;4.73;;
2055;SDS011;1033;52.560;13.374;2022-07-23T12:28:27;4.57;;;4.13;;
2055;SDS011;1033;52.560;13.374;2022-07-23T12:30:59;4.43;;;3.23;;
2055;SDS011;1033;52.560;13.374;2022-07-23T12:33:28;5.80;;;4.87;;
2055;SDS011;1033;52.560;13.374;2022-07-23T12:36:01;6.13;;;5.03;;
2055;SDS011;1033;52.560;13.374;2022-07-23T12:38:36;4.90;;;4.50;;
2055;SDS011;1033;52.560;13.374;2022-07-23T12:41:07;5.63;;;4.20;;
2055;SDS011;1033;52.560;13.374;2022-07-23T12:43:37;4.83;;;4.33;;
2055;SDS011;1033;52.560;13.374;2022-07-23T12:46:10;6.03;;;3.97;;
2055;SDS011;1033;52.560;13.374;2022-07-23T12:48:50;5.90;;;4.27;;
2055;SDS011;1033;52.560;13.374;2022-07-23T12:51:23;4.60;;;4.20;;
2055;SDS011;1033;52.560;13.374;2022-07-23T12:53:57;6.27;;;4.17;;
2055;SDS011;1033;52.560;13.374;2022-07-23T12:56:33;3.83;;;3.53;;
2055;SDS011;1033;52.560;13.374;2022-07-23T12:59:05;6.60;;;4.93;;
2055;SDS011;1033;52.560;13.374;2022-07-23T13:01:37;9.57;;;3.70;;
2055;SDS011;1033;52.560;13.374;2022-07-23T13:04:09;4.87;;;4.47;;
2055;SDS011;1033;52.560;13.374;2022-07-23T13:06:42;5.10;;;4.47;;
2055;SDS011;1033;52.560;13.374;2022-07-23T13:09:16;5.03;;;4.53;;
2055;SDS011;1033;52.560;13.374;2022-07-23T13:11:47;6.63;;;4.47;;
2055;SDS011;1033;52.560;13.374;2022-07-23T13:14:18;4.83;;;3.90;;
2055;SDS011;1033;52.560;13.374;2022-07-23T13:16:49;5.27;;;3.33;;
2055;SDS011;1033;52.560;13.374;2022-07-23T13:19:19;4.53;;;4.10;;
2055;SDS011;1033;52.560;13.374;2022-07-23T13:21:52;4.30;;;3.90;;
2055;SDS011;1033;52.560;13.374;2022-07-23T13:24:21;5.20;;;3.60;;
2055;SDS011;1033;52.560;13.374;2022-07-23T13:26:50;4.27;;;3.87;;
2055;SDS011;1033;52.560;13.374;2022-07-23T13:29:19;3.50;;;3.20;;
2055;SDS011;1033;52.560;13.374;2022-07-23T13:31:47;5.20;;;3.53;;
2055;SDS011;1033;52.560;13.374;2022-07-23T13:34:17;3.67;;;3.37;;
2055;SDS011;1033;52.560;13.374;2022-07-23T13:36:45;3.47;;;3.17;;
2055;SDS011;1033;52.560;13.374;2022-07-23T13:39:16;5.30;;;3.63;;
2055;SDS011;1033;52.560;13.374;2022-07-23T13:41:45;4.40;;;3.60;;
2055;SDS011;1033;52.560;13.374;2022-07-23T13:44:16;8.07;;;3.30;;
2055;SDS011;1033;52.560;13.374;2022-07-23T13:46:48;7.20;;;3.30;;
2055;SDS011;1033;52.560;13.374;2022-07-23T13:49:17;3.90;;;3.60;;
2055;SDS011;1033;52.560;13.374;2022-07-23T13:51:47;7.83;;;4.03;;
2055;SDS011;1033;52.560;13.374;2022-07-23T13:54:18;3.40;;;3.10;;
2055;SDS011;1033;52.560;13.374;2022-07-23T13:56:48;5.13;;;3.90;;
2055;SDS011;1033;52.560;13.374;2022-07-23T13:59:16;4.03;;;3.63;;
2055;SDS011;1033;52.560;13.374;2022-07-23T14:01:45;4.17;;;3.77;;
2055;SDS011;1033;52.560;13.374;2022-07-23T14:04:34;3.00;;;2.67;;
2055;SDS011;1033;52.560;13.374;2022-07-23T14:07:03;4.97;;;3.30;;
2055;SDS011;1033;52.560;13.374;2022-07-23T14:09:33;3.43;;;3.03;;
2055;SDS011;1033;52.560;13.374;2022-07-23T14:12:03;4.30;;;3.10;;
2055;SDS011;1033;52.560;13.374;2022-07-23T14:14:33;2.80;;;2.60;;
2055;SDS011;1033;52.560;13.374;2022-07-23T14:17:03;4.00;;;3.60;;
2055;SDS011;1033;52.560;13.374;2022-07-23T14:19:37;4.83;;;3.40;;
2055;SDS011;1033;52.560;13.374;2022-07-23T14:22:06;3.03;;;2.73;;
2055;SDS011;1033;52.560;13.374;2022-07-23T14:24:37;3.13;;;2.77;;
2055;SDS011;1033;52.560;13.374;2022-07-23T14:27:06;3.27;;;2.63;;
2055;SDS011;1033;52.560;13.374;2022-07-23T14:29:35;8.00;;;3.33;;
2055;SDS011;1033;52.560;13.374;2022-07-23T14:32:04;5.70;;;2.60;;
2055;SDS011;1033;52.560;13.374;2022-07-23T14:34:33;6.40;;;2.60;;
2055;SDS011;1033;52.560;13.374;2022-07-23T14:37:04;4.73;;;2.57;;
2055;SDS011;1033;52.560;13.374;2022-07-23T14:39:33;3.77;;;2.90;;
2055;SDS011;1033;52.560;13.374;2022-07-23T14:42:03;3.10;;;2.23;;
2055;SDS011;1033;52.560;13.374;2022-07-23T14:44:33;3.37;;;3.07;;
2055;SDS011;1033;52.560;13.374;2022-07-23T14:47:04;5.83;;;2.57;;
2055;SDS011;1033;52.560;13.374;2022-07-23T14:49:35;3.13;;;2.47;;
2055;SDS011;1033;52.560;13.374;2022-07-23T14:52:04;4.73;;;2.53;;
2055;SDS011;1033;52.560;13.374;2022-07-23T14:54:34;2.97;;;2.13;;
2055;SDS011;1033;52.560;13.374;2022-07-23T14:57:04;2.30;;;1.90;;
2055;SDS011;1033;52.560;13.374;2022-07-23T14:59:36;3.87;;;3.00;;
2055;SDS011;1033;52.560;13.374;2022-07-23T15:02:06;3.43;;;2.70;;
2055;SDS011;1033;52.560;13.374;2022-07-23T15:04:35;4.33;;;2.20;;
2055;SDS011;1033;52.560;13.374;2022-07-23T15:07:04;2.20;;;1.77;;
2055;SDS011;1033;52.560;13.374;2022-07-23T15:09:35;2.07;;;1.70;;
2055;SDS011;1033;52.560;13.374;2022-07-23T15:12:05;3.13;;;2.13;;
2055;SDS011;1033;52.560;13.374;2022-07-23T15:14:38;3.03;;;2.27;;
2055;SDS011;1033;52.560;13.374;2022-07-23T15:17:07;2.53;;;1.87;;
2055;SDS011;1033;52.560;13.374;2022-07-23T15:19:40;3.30;;;2.10;;
2055;SDS011;1033;52.560;13.374;2022-07-23T15:22:09;3.40;;;2.00;;
2055;SDS011;1033;52.560;13.374;2022-07-23T15:24:38;3.40;;;2.17;;
2055;SDS011;1033;52.560;13.374;2022-07-23T15:27:08;2.97;;;2.60;;
2055;SDS011;1033;52.560;13.374;2022-07-23T15:29:37;3.73;;;2.23;;
2055;SDS011;1033;52.560;13.374;2022-07-23T15:32:06;3.03;;;2.20;;
2055;SDS011;1033;52.560;13.374;2022-07-23T15:34:36;3.20;;;1.77;;